• Join FlightAware (Why Join?)
  • Login
  • US Flag 
04:38AM EDT


 

Airport Tracker/Info


-or-


 

Live Flight TrackerFlight Track Log ✈ UAL4301 ✈ 08-May-2013 ✈ KIAH - KAEX

Flight Track Log - Related Links

Times and Time Zones

All times are in EDT time to prevent confusion due to time zone crossing. See the UAL4301 flight status page for this flight to view local times or setup timezone preferences in your user account.

Time Position Orientation Groundspeed Altitude Reporting Facility
EDT Latitude Longitude Course Direction KTS MPH feet Rate Location/Type
09:36PM 30.3185 -95.0652 35° Northeast  Level FlightAware Approximate
09:37PM 30.4283 -94.9717 41° Northeast  Level FlightAware Approximate
09:38PM 30.5417 -94.8900 35° Northeast  Level FlightAware Approximate
09:39PM 30.6555 -94.8032 32° Northeast  Level FlightAware Approximate
09:40PM 30.7688 -94.7150 34° Northeast  Level FlightAware Approximate
09:41PM 30.8808 -94.6243 36° Northeast  Level FlightAware Approximate
09:42PM 30.9929 -94.5337 33° Northeast  Level FlightAware Approximate
09:43PM 31.1068 -94.4461 33° Northeast  Level FlightAware Approximate
09:44PM 31.1725 -94.3247 85° East  Level FlightAware Approximate
09:45PM 31.1833 -94.1658 90° East  Level FlightAware Approximate
09:46PM 31.1833 -94.0064 90° East  Level FlightAware Approximate
09:47PM 31.2000 -93.8492 90° East  Level FlightAware Approximate
09:48PM 31.2000 -93.6897 90° East  Level FlightAware Approximate
09:49PM 31.2150 -93.5314 83° East  Level FlightAware Approximate
09:50PM 31.2167 -93.3720 90° East  Level FlightAware Approximate
09:51PM 31.2220 -93.2130 80° East  Level FlightAware Approximate
09:52PM 31.2334 -93.0546 90° East  Level FlightAware Approximate
09:53PM 31.2333 -92.8951 90° East  Level FlightAware Approximate
09:54PM 31.2456 -92.7362 84° East  Level FlightAware Approximate
09:55PM 31.2500 -92.5769 90° East  Level FlightAware Approximate
09:56PM 31.3150 -92.5325 337° Northwest  Level FlightAware Approximate
09:57PM 31.3167 -92.5333 337° Northwest  Level FlightAware Approximate
09:58PM 31.3274 -92.5486 337° Northwest  Level Estimated
09:59PM 31.3274 -92.5486 337° Northwest  Level Estimated
10:00PM 31.3274 -92.5486 337° Northwest  Level Estimated
10:01PM 31.3274 -92.5486 337° Northwest  Level Estimated
10:02PM 31.3274 -92.5486 337° Northwest  Level Estimated
10:03PM 31.3274 -92.5486 337° Northwest  Level Estimated
10:04PM 31.3274 -92.5486 337° Northwest  Level Estimated
10:05PM 31.3274 -92.5486 337° Northwest  Level Estimated
10:06PM 31.3274 -92.5486 337° Northwest  Level Estimated